KECS

Mondell Field Airport

Newcastle, Wyoming, USA
METAR KECS 150315Z AUTO 36018G27KT 10SM SCT028 OVC038 15/11 A3015 RMK AO2 LTG DSNT N AND NE
Observed Flight Rules
Aug-15 @ 03:15 UTC (22 minutes ago) Visual Flight Rules
Wind Visibility Clouds
360° at 18 knots
 Gusting to 27 knots
10 miles
  • Scattered at 2,800' AGL
  • Overcast at 3,800' AGL
Temperatures Readings
Current 15°C / 59°F
Dewpoint 11°C / 52°F
Humidity 77%
Altimeter 30.15" Hg
Pressure 1021 hPa
Elevation 1273
METAR KECS 150315Z AUTO 36018G27KT 10SM SCT028 OVC038 15/11 A3015 RMK AO2 LTG DSNT N AND NE
Observed Flight Rules
Aug-15 @ 03:15 UTC
(22 minutes ago)
VFR
Wind Visibility
360° at 18 knots
 Gusting to 27 knots
10 miles
Clouds
  • Scattered at 2,800' AGL
  • Overcast at 3,800' AGL
Temperature Dewpoint
15°C / 59°F 11°C / 52°F
Humidity Altimeter Pressure
77% 30.15" Hg 1021 hPa